sensor_id;sensor_type;location;lat;lon;timestamp;P1;durP1;ratioP1;P2;durP2;ratioP2
62574;SDS011;53112;45.602;11.904;2022-07-04T00:01:09;7.05;;;5.40;;
62574;SDS011;53112;45.602;11.904;2022-07-04T00:03:35;8.18;;;5.53;;
62574;SDS011;53112;45.602;11.904;2022-07-04T00:06:01;7.53;;;5.10;;
62574;SDS011;53112;45.602;11.904;2022-07-04T00:08:27;9.20;;;6.10;;
62574;SDS011;53112;45.602;11.904;2022-07-04T00:10:53;10.77;;;6.32;;
62574;SDS011;53112;45.602;11.904;2022-07-04T00:13:19;7.57;;;6.10;;
62574;SDS011;53112;45.602;11.904;2022-07-04T00:15:45;7.60;;;6.00;;
62574;SDS011;53112;45.602;11.904;2022-07-04T00:18:10;10.98;;;6.20;;
62574;SDS011;53112;45.602;11.904;2022-07-04T00:20:36;8.93;;;6.78;;
62574;SDS011;53112;45.602;11.904;2022-07-04T00:23:02;10.27;;;6.63;;
62574;SDS011;53112;45.602;11.904;2022-07-04T00:25:28;7.80;;;5.90;;
62574;SDS011;53112;45.602;11.904;2022-07-04T00:27:54;9.27;;;5.93;;
62574;SDS011;53112;45.602;11.904;2022-07-04T00:30:20;6.82;;;5.70;;
62574;SDS011;53112;45.602;11.904;2022-07-04T00:32:46;8.73;;;6.15;;
62574;SDS011;53112;45.602;11.904;2022-07-04T00:35:12;8.43;;;6.30;;
62574;SDS011;53112;45.602;11.904;2022-07-04T00:37:37;7.95;;;5.93;;
62574;SDS011;53112;45.602;11.904;2022-07-04T00:40:04;6.93;;;5.18;;
62574;SDS011;53112;45.602;11.904;2022-07-04T00:42:30;7.53;;;5.50;;
62574;SDS011;53112;45.602;11.904;2022-07-04T00:44:56;8.27;;;6.20;;
62574;SDS011;53112;45.602;11.904;2022-07-04T00:47:22;7.63;;;5.63;;
62574;SDS011;53112;45.602;11.904;2022-07-04T00:49:48;9.30;;;5.80;;
62574;SDS011;53112;45.602;11.904;2022-07-04T00:52:14;8.57;;;6.35;;
62574;SDS011;53112;45.602;11.904;2022-07-04T00:54:40;10.50;;;6.57;;
62574;SDS011;53112;45.602;11.904;2022-07-04T00:57:06;8.82;;;6.25;;
62574;SDS011;53112;45.602;11.904;2022-07-04T00:59:33;8.48;;;5.97;;
62574;SDS011;53112;45.602;11.904;2022-07-04T01:01:59;7.65;;;6.13;;
62574;SDS011;53112;45.602;11.904;2022-07-04T01:04:25;8.27;;;6.13;;
62574;SDS011;53112;45.602;11.904;2022-07-04T01:06:50;7.25;;;5.80;;
62574;SDS011;53112;45.602;11.904;2022-07-04T01:09:18;9.63;;;5.63;;
62574;SDS011;53112;45.602;11.904;2022-07-04T01:11:44;10.18;;;6.55;;
62574;SDS011;53112;45.602;11.904;2022-07-04T01:14:10;10.20;;;6.20;;
62574;SDS011;53112;45.602;11.904;2022-07-04T01:16:36;9.60;;;6.10;;
62574;SDS011;53112;45.602;11.904;2022-07-04T01:19:02;7.30;;;5.60;;
62574;SDS011;53112;45.602;11.904;2022-07-04T01:21:28;9.10;;;5.93;;
62574;SDS011;53112;45.602;11.904;2022-07-04T01:23:56;8.98;;;5.70;;
62574;SDS011;53112;45.602;11.904;2022-07-04T01:26:22;10.38;;;6.10;;
62574;SDS011;53112;45.602;11.904;2022-07-04T01:28:48;11.82;;;7.22;;
62574;SDS011;53112;45.602;11.904;2022-07-04T01:31:14;9.30;;;6.20;;
62574;SDS011;53112;45.602;11.904;2022-07-04T01:33:40;9.27;;;5.93;;
62574;SDS011;53112;45.602;11.904;2022-07-04T01:36:06;8.95;;;5.90;;
62574;SDS011;53112;45.602;11.904;2022-07-04T01:38:32;9.25;;;5.90;;
62574;SDS011;53112;45.602;11.904;2022-07-04T01:40:57;8.15;;;6.03;;
62574;SDS011;53112;45.602;11.904;2022-07-04T01:43:23;8.07;;;5.60;;
62574;SDS011;53112;45.602;11.904;2022-07-04T01:45:49;9.13;;;5.80;;
62574;SDS011;53112;45.602;11.904;2022-07-04T01:48:15;7.00;;;5.03;;
62574;SDS011;53112;45.602;11.904;2022-07-04T01:50:41;8.20;;;6.00;;
62574;SDS011;53112;45.602;11.904;2022-07-04T01:53:07;8.05;;;5.78;;
62574;SDS011;53112;45.602;11.904;2022-07-04T01:55:33;7.82;;;5.80;;
62574;SDS011;53112;45.602;11.904;2022-07-04T01:57:59;8.27;;;6.22;;
62574;SDS011;53112;45.602;11.904;2022-07-04T02:00:25;9.10;;;6.47;;
62574;SDS011;53112;45.602;11.904;2022-07-04T02:03:10;7.38;;;5.72;;
62574;SDS011;53112;45.602;11.904;2022-07-04T02:05:36;8.07;;;5.25;;
62574;SDS011;53112;45.602;11.904;2022-07-04T02:08:06;8.68;;;5.57;;
62574;SDS011;53112;45.602;11.904;2022-07-04T02:10:36;10.23;;;6.40;;
62574;SDS011;53112;45.602;11.904;2022-07-04T02:13:02;12.27;;;6.20;;
62574;SDS011;53112;45.602;11.904;2022-07-04T02:15:36;6.13;;;5.30;;
62574;SDS011;53112;45.602;11.904;2022-07-04T02:18:04;7.30;;;5.10;;
62574;SDS011;53112;45.602;11.904;2022-07-04T02:20:31;7.35;;;5.22;;
62574;SDS011;53112;45.602;11.904;2022-07-04T02:22:58;8.35;;;5.18;;
62574;SDS011;53112;45.602;11.904;2022-07-04T02:25:24;7.55;;;5.10;;
62574;SDS011;53112;45.602;11.904;2022-07-04T02:27:50;8.32;;;5.70;;
62574;SDS011;53112;45.602;11.904;2022-07-04T02:30:16;8.07;;;5.53;;
62574;SDS011;53112;45.602;11.904;2022-07-04T02:32:43;8.60;;;5.20;;
62574;SDS011;53112;45.602;11.904;2022-07-04T02:35:09;9.55;;;5.40;;
62574;SDS011;53112;45.602;11.904;2022-07-04T02:37:35;8.10;;;4.72;;
62574;SDS011;53112;45.602;11.904;2022-07-04T02:40:02;6.32;;;4.80;;
62574;SDS011;53112;45.602;11.904;2022-07-04T02:42:30;7.63;;;4.60;;
62574;SDS011;53112;45.602;11.904;2022-07-04T02:44:57;5.85;;;4.72;;
62574;SDS011;53112;45.602;11.904;2022-07-04T02:47:24;6.40;;;5.05;;
62574;SDS011;53112;45.602;11.904;2022-07-04T02:49:50;6.47;;;5.10;;
62574;SDS011;53112;45.602;11.904;2022-07-04T02:52:16;10.50;;;5.68;;
62574;SDS011;53112;45.602;11.904;2022-07-04T02:54:42;9.02;;;5.95;;
62574;SDS011;53112;45.602;11.904;2022-07-04T02:57:10;7.72;;;5.10;;
62574;SDS011;53112;45.602;11.904;2022-07-04T02:59:36;7.50;;;5.50;;
62574;SDS011;53112;45.602;11.904;2022-07-04T03:02:02;9.02;;;5.30;;
62574;SDS011;53112;45.602;11.904;2022-07-04T03:04:29;7.63;;;5.43;;
62574;SDS011;53112;45.602;11.904;2022-07-04T03:06:54;5.97;;;4.15;;
62574;SDS011;53112;45.602;11.904;2022-07-04T03:09:20;5.85;;;4.15;;
62574;SDS011;53112;45.602;11.904;2022-07-04T03:11:46;7.80;;;4.60;;
62574;SDS011;53112;45.602;11.904;2022-07-04T03:14:12;5.78;;;4.30;;
62574;SDS011;53112;45.602;11.904;2022-07-04T03:16:38;6.43;;;4.13;;
62574;SDS011;53112;45.602;11.904;2022-07-04T03:19:04;5.60;;;4.35;;
62574;SDS011;53112;45.602;11.904;2022-07-04T03:21:30;7.40;;;4.70;;
62574;SDS011;53112;45.602;11.904;2022-07-04T03:23:56;7.00;;;4.70;;
62574;SDS011;53112;45.602;11.904;2022-07-04T03:26:28;7.03;;;4.45;;
62574;SDS011;53112;45.602;11.904;2022-07-04T03:28:56;6.15;;;4.57;;
62574;SDS011;53112;45.602;11.904;2022-07-04T03:31:23;5.50;;;4.15;;
62574;SDS011;53112;45.602;11.904;2022-07-04T03:33:50;7.32;;;4.28;;
62574;SDS011;53112;45.602;11.904;2022-07-04T03:36:16;8.13;;;4.40;;
62574;SDS011;53112;45.602;11.904;2022-07-04T03:38:43;7.75;;;5.18;;
62574;SDS011;53112;45.602;11.904;2022-07-04T03:41:09;10.68;;;5.07;;
62574;SDS011;53112;45.602;11.904;2022-07-04T03:43:36;7.25;;;5.10;;
62574;SDS011;53112;45.602;11.904;2022-07-04T03:46:01;6.88;;;5.00;;
62574;SDS011;53112;45.602;11.904;2022-07-04T03:48:28;8.55;;;4.75;;
62574;SDS011;53112;45.602;11.904;2022-07-04T03:50:54;6.20;;;4.32;;
62574;SDS011;53112;45.602;11.904;2022-07-04T03:53:20;7.18;;;3.97;;
62574;SDS011;53112;45.602;11.904;2022-07-04T03:55:46;5.80;;;4.05;;
62574;SDS011;53112;45.602;11.904;2022-07-04T03:58:12;6.10;;;4.10;;
62574;SDS011;53112;45.602;11.904;2022-07-04T04:00:38;6.53;;;4.20;;
62574;SDS011;53112;45.602;11.904;2022-07-04T04:03:04;6.00;;;4.10;;
62574;SDS011;53112;45.602;11.904;2022-07-04T04:05:49;5.57;;;4.00;;
62574;SDS011;53112;45.602;11.904;2022-07-04T04:08:15;9.20;;;4.82;;
62574;SDS011;53112;45.602;11.904;2022-07-04T04:10:41;7.30;;;4.53;;
62574;SDS011;53112;45.602;11.904;2022-07-04T04:13:08;7.55;;;4.70;;
62574;SDS011;53112;45.602;11.904;2022-07-04T04:15:34;8.20;;;5.25;;
62574;SDS011;53112;45.602;11.904;2022-07-04T04:17:59;7.80;;;5.30;;
62574;SDS011;53112;45.602;11.904;2022-07-04T04:20:26;7.82;;;5.47;;
62574;SDS011;53112;45.602;11.904;2022-07-04T04:22:52;7.72;;;5.40;;
62574;SDS011;53112;45.602;11.904;2022-07-04T04:25:18;9.32;;;5.10;;
62574;SDS011;53112;45.602;11.904;2022-07-04T04:27:44;9.38;;;5.50;;
62574;SDS011;53112;45.602;11.904;2022-07-04T04:30:10;7.72;;;5.57;;
62574;SDS011;53112;45.602;11.904;2022-07-04T04:32:36;8.50;;;5.30;;
62574;SDS011;53112;45.602;11.904;2022-07-04T04:35:02;10.13;;;5.45;;
62574;SDS011;53112;45.602;11.904;2022-07-04T04:37:28;9.50;;;5.40;;
62574;SDS011;53112;45.602;11.904;2022-07-04T04:39:54;10.50;;;5.30;;
62574;SDS011;53112;45.602;11.904;2022-07-04T04:42:20;8.55;;;5.65;;
62574;SDS011;53112;45.602;11.904;2022-07-04T04:44:46;8.10;;;5.93;;
62574;SDS011;53112;45.602;11.904;2022-07-04T04:47:13;10.18;;;5.70;;
62574;SDS011;53112;45.602;11.904;2022-07-04T04:49:39;8.18;;;5.60;;
62574;SDS011;53112;45.602;11.904;2022-07-04T04:52:05;8.20;;;5.10;;
62574;SDS011;53112;45.602;11.904;2022-07-04T04:54:31;7.50;;;4.90;;
62574;SDS011;53112;45.602;11.904;2022-07-04T04:56:58;8.25;;;4.90;;
62574;SDS011;53112;45.602;11.904;2022-07-04T04:59:25;7.78;;;5.13;;
62574;SDS011;53112;45.602;11.904;2022-07-04T05:01:52;7.97;;;4.65;;
62574;SDS011;53112;45.602;11.904;2022-07-04T05:04:18;5.55;;;4.20;;
62574;SDS011;53112;45.602;11.904;2022-07-04T05:06:43;9.30;;;4.20;;
62574;SDS011;53112;45.602;11.904;2022-07-04T05:09:09;6.10;;;4.03;;
62574;SDS011;53112;45.602;11.904;2022-07-04T05:11:36;6.68;;;4.70;;
62574;SDS011;53112;45.602;11.904;2022-07-04T05:14:02;8.25;;;4.70;;
62574;SDS011;53112;45.602;11.904;2022-07-04T05:16:28;5.47;;;4.10;;
62574;SDS011;53112;45.602;11.904;2022-07-04T05:18:54;5.85;;;4.22;;
62574;SDS011;53112;45.602;11.904;2022-07-04T05:21:20;7.47;;;4.47;;
62574;SDS011;53112;45.602;11.904;2022-07-04T05:23:46;7.97;;;3.97;;
62574;SDS011;53112;45.602;11.904;2022-07-04T05:26:12;7.15;;;4.18;;
62574;SDS011;53112;45.602;11.904;2022-07-04T05:28:38;7.85;;;4.22;;
62574;SDS011;53112;45.602;11.904;2022-07-04T05:31:03;6.88;;;4.00;;
62574;SDS011;53112;45.602;11.904;2022-07-04T05:33:29;9.38;;;3.97;;
62574;SDS011;53112;45.602;11.904;2022-07-04T05:35:55;6.57;;;4.30;;
62574;SDS011;53112;45.602;11.904;2022-07-04T05:38:22;6.63;;;4.10;;
62574;SDS011;53112;45.602;11.904;2022-07-04T05:40:47;5.55;;;3.72;;
62574;SDS011;53112;45.602;11.904;2022-07-04T05:43:14;6.28;;;4.18;;
62574;SDS011;53112;45.602;11.904;2022-07-04T05:45:40;7.60;;;4.10;;
62574;SDS011;53112;45.602;11.904;2022-07-04T05:48:06;6.10;;;3.80;;
62574;SDS011;53112;45.602;11.904;2022-07-04T05:50:32;7.88;;;3.90;;
62574;SDS011;53112;45.602;11.904;2022-07-04T05:52:58;6.25;;;3.92;;
62574;SDS011;53112;45.602;11.904;2022-07-04T05:55:24;8.50;;;3.97;;
62574;SDS011;53112;45.602;11.904;2022-07-04T05:57:50;6.40;;;3.53;;
62574;SDS011;53112;45.602;11.904;2022-07-04T06:00:16;6.50;;;3.25;;
62574;SDS011;53112;45.602;11.904;2022-07-04T06:02:42;5.93;;;3.60;;
62574;SDS011;53112;45.602;11.904;2022-07-04T06:05:08;7.10;;;3.60;;
62574;SDS011;53112;45.602;11.904;2022-07-04T06:07:34;6.38;;;3.90;;
62574;SDS011;53112;45.602;11.904;2022-07-04T06:10:00;6.65;;;3.97;;
62574;SDS011;53112;45.602;11.904;2022-07-04T06:12:26;4.95;;;3.78;;
62574;SDS011;53112;45.602;11.904;2022-07-04T06:14:52;6.28;;;4.15;;
62574;SDS011;53112;45.602;11.904;2022-07-04T06:17:18;5.60;;;3.60;;
62574;SDS011;53112;45.602;11.904;2022-07-04T06:19:45;7.50;;;3.97;;
62574;SDS011;53112;45.602;11.904;2022-07-04T06:22:11;5.20;;;3.63;;
62574;SDS011;53112;45.602;11.904;2022-07-04T06:24:38;6.97;;;4.30;;
62574;SDS011;53112;45.602;11.904;2022-07-04T06:27:04;5.80;;;3.95;;
62574;SDS011;53112;45.602;11.904;2022-07-04T06:29:31;6.75;;;4.50;;
62574;SDS011;53112;45.602;11.904;2022-07-04T06:31:56;9.30;;;5.70;;
62574;SDS011;53112;45.602;11.904;2022-07-04T06:34:22;7.63;;;4.50;;
62574;SDS011;53112;45.602;11.904;2022-07-04T06:37:07;6.10;;;4.15;;
62574;SDS011;53112;45.602;11.904;2022-07-04T06:39:33;8.85;;;5.07;;
62574;SDS011;53112;45.602;11.904;2022-07-04T06:41:59;6.63;;;4.65;;
62574;SDS011;53112;45.602;11.904;2022-07-04T06:44:25;5.60;;;3.83;;
62574;SDS011;53112;45.602;11.904;2022-07-04T06:46:51;6.30;;;4.00;;
62574;SDS011;53112;45.602;11.904;2022-07-04T06:49:17;7.35;;;3.75;;
62574;SDS011;53112;45.602;11.904;2022-07-04T06:51:43;5.85;;;3.88;;
62574;SDS011;53112;45.602;11.904;2022-07-04T06:54:09;6.05;;;3.65;;
62574;SDS011;53112;45.602;11.904;2022-07-04T06:56:35;5.13;;;3.55;;
62574;SDS011;53112;45.602;11.904;2022-07-04T06:59:00;6.25;;;3.85;;
62574;SDS011;53112;45.602;11.904;2022-07-04T07:01:28;6.00;;;3.70;;
62574;SDS011;53112;45.602;11.904;2022-07-04T07:03:54;5.57;;;3.63;;
62574;SDS011;53112;45.602;11.904;2022-07-04T07:06:20;4.88;;;3.50;;
62574;SDS011;53112;45.602;11.904;2022-07-04T07:08:48;5.07;;;3.25;;
62574;SDS011;53112;45.602;11.904;2022-07-04T07:11:15;6.07;;;3.63;;
62574;SDS011;53112;45.602;11.904;2022-07-04T07:13:46;6.82;;;3.72;;
62574;SDS011;53112;45.602;11.904;2022-07-04T07:16:15;6.78;;;3.22;;
62574;SDS011;53112;45.602;11.904;2022-07-04T07:18:41;4.88;;;3.28;;
62574;SDS011;53112;45.602;11.904;2022-07-04T07:21:07;5.18;;;3.22;;
62574;SDS011;53112;45.602;11.904;2022-07-04T07:23:34;5.78;;;3.95;;
62574;SDS011;53112;45.602;11.904;2022-07-04T07:26:03;6.32;;;3.60;;
62574;SDS011;53112;45.602;11.904;2022-07-04T07:28:29;6.38;;;3.50;;
62574;SDS011;53112;45.602;11.904;2022-07-04T07:30:55;6.93;;;3.50;;
62574;SDS011;53112;45.602;11.904;2022-07-04T07:33:21;6.50;;;3.65;;
62574;SDS011;53112;45.602;11.904;2022-07-04T07:35:47;7.30;;;3.88;;
62574;SDS011;53112;45.602;11.904;2022-07-04T07:38:13;4.90;;;3.22;;
62574;SDS011;53112;45.602;11.904;2022-07-04T07:40:39;7.15;;;3.30;;
62574;SDS011;53112;45.602;11.904;2022-07-04T07:43:06;4.78;;;3.20;;
62574;SDS011;53112;45.602;11.904;2022-07-04T07:45:32;6.18;;;3.70;;
62574;SDS011;53112;45.602;11.904;2022-07-04T07:47:58;5.10;;;3.10;;
62574;SDS011;53112;45.602;11.904;2022-07-04T07:50:23;5.60;;;3.15;;
62574;SDS011;53112;45.602;11.904;2022-07-04T07:52:49;7.95;;;3.40;;
62574;SDS011;53112;45.602;11.904;2022-07-04T07:55:15;5.28;;;3.20;;
62574;SDS011;53112;45.602;11.904;2022-07-04T07:57:41;4.28;;;3.22;;
62574;SDS011;53112;45.602;11.904;2022-07-04T08:00:07;6.72;;;3.47;;
62574;SDS011;53112;45.602;11.904;2022-07-04T08:02:34;5.35;;;3.40;;
62574;SDS011;53112;45.602;11.904;2022-07-04T08:05:18;6.68;;;3.40;;
62574;SDS011;53112;45.602;11.904;2022-07-04T08:07:44;5.15;;;3.30;;
62574;SDS011;53112;45.602;11.904;2022-07-04T08:10:10;5.28;;;3.42;;
62574;SDS011;53112;45.602;11.904;2022-07-04T08:12:36;5.22;;;3.20;;
62574;SDS011;53112;45.602;11.904;2022-07-04T08:15:02;5.30;;;3.20;;
62574;SDS011;53112;45.602;11.904;2022-07-04T08:17:29;6.65;;;3.60;;
62574;SDS011;53112;45.602;11.904;2022-07-04T08:19:56;5.75;;;3.08;;
62574;SDS011;53112;45.602;11.904;2022-07-04T08:22:21;5.10;;;3.15;;
62574;SDS011;53112;45.602;11.904;2022-07-04T08:24:47;5.97;;;3.22;;
62574;SDS011;53112;45.602;11.904;2022-07-04T08:27:13;6.55;;;3.20;;
62574;SDS011;53112;45.602;11.904;2022-07-04T08:29:39;4.38;;;3.10;;
62574;SDS011;53112;45.602;11.904;2022-07-04T08:32:06;4.40;;;3.00;;
62574;SDS011;53112;45.602;11.904;2022-07-04T08:34:33;5.70;;;3.20;;
62574;SDS011;53112;45.602;11.904;2022-07-04T08:37:00;6.00;;;3.30;;
62574;SDS011;53112;45.602;11.904;2022-07-04T08:39:26;4.57;;;2.95;;
62574;SDS011;53112;45.602;11.904;2022-07-04T08:41:53;4.30;;;2.92;;
62574;SDS011;53112;45.602;11.904;2022-07-04T08:44:25;4.55;;;3.00;;
62574;SDS011;53112;45.602;11.904;2022-07-04T08:46:53;5.07;;;3.17;;
62574;SDS011;53112;45.602;11.904;2022-07-04T08:49:20;4.45;;;3.00;;
62574;SDS011;53112;45.602;11.904;2022-07-04T08:52:23;3.75;;;2.78;;
62574;SDS011;53112;45.602;11.904;2022-07-04T08:54:43;5.47;;;2.97;;
62574;SDS011;53112;45.602;11.904;2022-07-04T08:57:28;7.28;;;3.00;;
62574;SDS011;53112;45.602;11.904;2022-07-04T09:00:13;6.10;;;2.90;;
62574;SDS011;53112;45.602;11.904;2022-07-04T09:02:39;4.45;;;2.90;;
62574;SDS011;53112;45.602;11.904;2022-07-04T09:05:06;3.80;;;2.67;;
62574;SDS011;53112;45.602;11.904;2022-07-04T09:07:33;4.80;;;2.70;;
62574;SDS011;53112;45.602;11.904;2022-07-04T09:09:59;4.45;;;2.83;;
62574;SDS011;53112;45.602;11.904;2022-07-04T09:12:27;4.80;;;2.75;;
62574;SDS011;53112;45.602;11.904;2022-07-04T09:14:53;4.80;;;3.05;;
62574;SDS011;53112;45.602;11.904;2022-07-04T09:17:20;5.20;;;2.90;;
62574;SDS011;53112;45.602;11.904;2022-07-04T09:20:09;6.20;;;3.30;;
62574;SDS011;53112;45.602;11.904;2022-07-04T09:22:36;4.43;;;2.90;;
62574;SDS011;53112;45.602;11.904;2022-07-04T09:25:02;5.63;;;2.75;;
62574;SDS011;53112;45.602;11.904;2022-07-04T09:27:38;5.53;;;2.70;;
62574;SDS011;53112;45.602;11.904;2022-07-04T09:30:05;2.70;;;2.33;;
62574;SDS011;53112;45.602;11.904;2022-07-04T09:32:37;3.55;;;2.30;;
62574;SDS011;53112;45.602;11.904;2022-07-04T09:35:19;4.78;;;2.72;;
62574;SDS011;53112;45.602;11.904;2022-07-04T09:37:48;5.70;;;2.80;;
62574;SDS011;53112;45.602;11.904;2022-07-04T09:43:35;3.47;;;2.70;;
62574;SDS011;53112;45.602;11.904;2022-07-04T09:46:01;4.22;;;2.50;;
62574;SDS011;53112;45.602;11.904;2022-07-04T09:51:22;4.50;;;2.10;;
62574;SDS011;53112;45.602;11.904;2022-07-04T09:54:21;3.28;;;2.00;;
62574;SDS011;53112;45.602;11.904;2022-07-04T09:57:00;3.88;;;2.20;;
62574;SDS011;53112;45.602;11.904;2022-07-04T10:02:09;4.53;;;2.10;;
62574;SDS011;53112;45.602;11.904;2022-07-04T10:04:55;2.60;;;2.00;;
62574;SDS011;53112;45.602;11.904;2022-07-04T10:07:30;5.82;;;2.05;;
62574;SDS011;53112;45.602;11.904;2022-07-04T10:09:58;5.57;;;2.20;;
62574;SDS011;53112;45.602;11.904;2022-07-04T10:12:25;4.13;;;2.20;;
62574;SDS011;53112;45.602;11.904;2022-07-04T10:14:53;4.07;;;2.20;;
62574;SDS011;53112;45.602;11.904;2022-07-04T10:17:22;4.82;;;2.45;;
62574;SDS011;53112;45.602;11.904;2022-07-04T10:19:48;3.42;;;2.08;;
62574;SDS011;53112;45.602;11.904;2022-07-04T10:22:19;3.78;;;2.25;;
62574;SDS011;53112;45.602;11.904;2022-07-04T10:24:48;5.75;;;2.10;;
62574;SDS011;53112;45.602;11.904;2022-07-04T10:27:14;3.75;;;2.00;;
62574;SDS011;53112;45.602;11.904;2022-07-04T10:29:40;2.83;;;2.10;;
62574;SDS011;53112;45.602;11.904;2022-07-04T10:32:06;2.90;;;2.10;;
62574;SDS011;53112;45.602;11.904;2022-07-04T10:34:40;2.30;;;2.10;;
62574;SDS011;53112;45.602;11.904;2022-07-04T10:37:07;4.57;;;2.17;;
62574;SDS011;53112;45.602;11.904;2022-07-04T10:39:33;4.63;;;2.15;;
62574;SDS011;53112;45.602;11.904;2022-07-04T10:41:59;2.92;;;1.92;;
62574;SDS011;53112;45.602;11.904;2022-07-04T10:44:27;3.63;;;2.10;;
62574;SDS011;53112;45.602;11.904;2022-07-04T10:47:00;3.15;;;2.15;;
62574;SDS011;53112;45.602;11.904;2022-07-04T10:49:27;4.35;;;1.90;;
62574;SDS011;53112;45.602;11.904;2022-07-04T10:51:55;3.25;;;2.10;;
62574;SDS011;53112;45.602;11.904;2022-07-04T10:54:36;3.65;;;2.10;;
62574;SDS011;53112;45.602;11.904;2022-07-04T10:57:19;2.95;;;2.05;;
62574;SDS011;53112;45.602;11.904;2022-07-04T11:18:04;4.68;;;2.03;;
62574;SDS011;53112;45.602;11.904;2022-07-04T11:20:34;2.53;;;2.00;;
62574;SDS011;53112;45.602;11.904;2022-07-04T11:25:34;4.93;;;1.90;;
62574;SDS011;53112;45.602;11.904;2022-07-04T11:30:52;4.03;;;2.13;;
62574;SDS011;53112;45.602;11.904;2022-07-04T11:33:20;5.43;;;2.38;;
62574;SDS011;53112;45.602;11.904;2022-07-04T11:36:04;3.63;;;2.40;;
62574;SDS011;53112;45.602;11.904;2022-07-04T11:41:26;4.35;;;2.30;;
62574;SDS011;53112;45.602;11.904;2022-07-04T11:44:17;3.85;;;2.30;;
62574;SDS011;53112;45.602;11.904;2022-07-04T11:49:47;4.63;;;2.47;;
62574;SDS011;53112;45.602;11.904;2022-07-04T11:52:21;4.20;;;2.55;;
62574;SDS011;53112;45.602;11.904;2022-07-04T11:54:49;5.20;;;2.70;;
62574;SDS011;53112;45.602;11.904;2022-07-04T11:57:18;5.15;;;2.88;;
62574;SDS011;53112;45.602;11.904;2022-07-04T11:59:56;5.45;;;2.78;;
62574;SDS011;53112;45.602;11.904;2022-07-04T12:02:30;3.55;;;2.58;;
62574;SDS011;53112;45.602;11.904;2022-07-04T12:04:58;5.40;;;2.60;;
62574;SDS011;53112;45.602;11.904;2022-07-04T12:07:28;3.60;;;2.60;;
62574;SDS011;53112;45.602;11.904;2022-07-04T12:10:05;4.85;;;2.70;;
62574;SDS011;53112;45.602;11.904;2022-07-04T12:15:24;3.38;;;2.45;;
62574;SDS011;53112;45.602;11.904;2022-07-04T12:18:00;3.45;;;2.22;;
62574;SDS011;53112;45.602;11.904;2022-07-04T12:20:27;2.17;;;1.88;;
62574;SDS011;53112;45.602;11.904;2022-07-04T12:22:57;3.60;;;2.35;;
62574;SDS011;53112;45.602;11.904;2022-07-04T12:25:29;4.55;;;2.30;;
62574;SDS011;53112;45.602;11.904;2022-07-04T12:30:29;6.68;;;2.38;;
62574;SDS011;53112;45.602;11.904;2022-07-04T12:33:03;5.35;;;2.40;;
62574;SDS011;53112;45.602;11.904;2022-07-04T12:35:32;6.03;;;2.85;;
62574;SDS011;53112;45.602;11.904;2022-07-04T12:48:59;3.78;;;2.10;;
62574;SDS011;53112;45.602;11.904;2022-07-04T12:51:35;3.83;;;1.90;;
62574;SDS011;53112;45.602;11.904;2022-07-04T12:54:08;3.47;;;1.75;;
62574;SDS011;53112;45.602;11.904;2022-07-04T12:56:41;2.58;;;1.70;;
62574;SDS011;53112;45.602;11.904;2022-07-04T12:59:13;5.30;;;1.70;;
62574;SDS011;53112;45.602;11.904;2022-07-04T13:01:41;2.33;;;1.70;;
62574;SDS011;53112;45.602;11.904;2022-07-04T13:04:08;5.22;;;1.80;;
62574;SDS011;53112;45.602;11.904;2022-07-04T13:06:35;2.83;;;1.70;;
62574;SDS011;53112;45.602;11.904;2022-07-04T13:09:03;2.75;;;1.40;;
62574;SDS011;53112;45.602;11.904;2022-07-04T13:11:31;3.67;;;2.00;;
62574;SDS011;53112;45.602;11.904;2022-07-04T13:14:15;3.60;;;1.70;;
62574;SDS011;53112;45.602;11.904;2022-07-04T13:16:41;4.65;;;2.00;;
62574;SDS011;53112;45.602;11.904;2022-07-04T13:19:06;4.30;;;1.83;;
62574;SDS011;53112;45.602;11.904;2022-07-04T13:21:32;8.02;;;1.92;;
62574;SDS011;53112;45.602;11.904;2022-07-04T13:23:58;4.15;;;2.00;;
62574;SDS011;53112;45.602;11.904;2022-07-04T13:26:24;5.78;;;2.00;;
62574;SDS011;53112;45.602;11.904;2022-07-04T13:28:50;4.22;;;1.70;;
62574;SDS011;53112;45.602;11.904;2022-07-04T13:31:16;2.97;;;1.70;;
62574;SDS011;53112;45.602;11.904;2022-07-04T13:33:42;4.22;;;1.80;;
62574;SDS011;53112;45.602;11.904;2022-07-04T13:36:08;2.22;;;1.67;;
62574;SDS011;53112;45.602;11.904;2022-07-04T13:38:34;4.10;;;1.52;;
62574;SDS011;53112;45.602;11.904;2022-07-04T13:41:00;3.53;;;1.50;;
62574;SDS011;53112;45.602;11.904;2022-07-04T13:43:26;5.60;;;2.13;;
62574;SDS011;53112;45.602;11.904;2022-07-04T13:45:54;4.55;;;1.50;;
62574;SDS011;53112;45.602;11.904;2022-07-04T13:48:21;5.03;;;1.70;;
62574;SDS011;53112;45.602;11.904;2022-07-04T13:50:48;3.08;;;1.70;;
62574;SDS011;53112;45.602;11.904;2022-07-04T13:53:14;2.17;;;1.60;;
62574;SDS011;53112;45.602;11.904;2022-07-04T13:55:39;3.30;;;1.60;;
62574;SDS011;53112;45.602;11.904;2022-07-04T13:58:06;3.42;;;1.45;;
62574;SDS011;53112;45.602;11.904;2022-07-04T14:00:34;2.42;;;1.52;;
62574;SDS011;53112;45.602;11.904;2022-07-04T14:03:01;3.10;;;1.50;;
62574;SDS011;53112;45.602;11.904;2022-07-04T14:05:28;2.63;;;1.40;;
62574;SDS011;53112;45.602;11.904;2022-07-04T14:07:54;7.03;;;1.70;;
62574;SDS011;53112;45.602;11.904;2022-07-04T14:10:20;2.67;;;1.63;;
62574;SDS011;53112;45.602;11.904;2022-07-04T14:12:46;1.50;;;1.40;;
62574;SDS011;53112;45.602;11.904;2022-07-04T14:15:12;3.90;;;1.60;;
62574;SDS011;53112;45.602;11.904;2022-07-04T14:17:38;3.15;;;1.50;;
62574;SDS011;53112;45.602;11.904;2022-07-04T14:20:05;3.42;;;1.40;;
62574;SDS011;53112;45.602;11.904;2022-07-04T14:22:34;2.13;;;1.38;;
62574;SDS011;53112;45.602;11.904;2022-07-04T14:25:00;4.20;;;1.63;;
62574;SDS011;53112;45.602;11.904;2022-07-04T14:27:26;2.22;;;1.50;;
62574;SDS011;53112;45.602;11.904;2022-07-04T14:29:53;1.80;;;1.40;;
62574;SDS011;53112;45.602;11.904;2022-07-04T14:32:19;4.30;;;1.52;;
62574;SDS011;53112;45.602;11.904;2022-07-04T14:34:45;3.13;;;1.58;;
62574;SDS011;53112;45.602;11.904;2022-07-04T14:37:11;3.75;;;1.60;;
62574;SDS011;53112;45.602;11.904;2022-07-04T14:39:37;3.17;;;1.42;;
62574;SDS011;53112;45.602;11.904;2022-07-04T14:42:03;2.67;;;1.50;;
62574;SDS011;53112;45.602;11.904;2022-07-04T14:44:29;2.05;;;1.50;;
62574;SDS011;53112;45.602;11.904;2022-07-04T14:47:00;2.45;;;1.42;;
62574;SDS011;53112;45.602;11.904;2022-07-04T14:49:27;2.88;;;1.40;;
62574;SDS011;53112;45.602;11.904;2022-07-04T14:51:53;2.70;;;1.50;;
62574;SDS011;53112;45.602;11.904;2022-07-04T14:54:22;3.53;;;1.70;;
62574;SDS011;53112;45.602;11.904;2022-07-04T14:56:49;2.60;;;1.55;;
62574;SDS011;53112;45.602;11.904;2022-07-04T14:59:15;3.10;;;1.40;;
62574;SDS011;53112;45.602;11.904;2022-07-04T15:01:41;2.67;;;1.48;;
62574;SDS011;53112;45.602;11.904;2022-07-04T15:04:07;2.25;;;1.60;;
62574;SDS011;53112;45.602;11.904;2022-07-04T15:06:33;1.55;;;1.42;;
62574;SDS011;53112;45.602;11.904;2022-07-04T15:09:01;2.97;;;1.40;;
62574;SDS011;53112;45.602;11.904;2022-07-04T15:11:28;2.55;;;1.60;;
62574;SDS011;53112;45.602;11.904;2022-07-04T15:13:54;1.88;;;1.40;;
62574;SDS011;53112;45.602;11.904;2022-07-04T15:16:20;3.45;;;1.48;;
62574;SDS011;53112;45.602;11.904;2022-07-04T15:18:46;1.92;;;1.40;;
62574;SDS011;53112;45.602;11.904;2022-07-04T15:21:12;3.45;;;1.60;;
62574;SDS011;53112;45.602;11.904;2022-07-04T15:23:57;2.80;;;1.60;;
62574;SDS011;53112;45.602;11.904;2022-07-04T15:29:09;6.50;;;1.75;;
62574;SDS011;53112;45.602;11.904;2022-07-04T15:31:36;3.22;;;1.40;;
62574;SDS011;53112;45.602;11.904;2022-07-04T15:34:02;1.85;;;1.48;;